Time;durP1;ratioP1;P1;durP2;ratioP2;P2;SDS_P1;SDS_P2;PMS_P1;PMS_P2;Temp;Humidity;BMP_temperature;BMP_pressure;BME280_temperature;BME280_humidity;BME280_pressure;Samples;Min_cycle;Max_cycle;Signal;HPM_P1;HPM_P2
2023/03/31 00:01:04;;;;;;;;;;;;;;;-144.99;100.00;52437.91;5010661;28;20063;-70
2023/03/31 00:03:32;;;;;;;;;;;;;;;-144.99;100.00;52448.09;5010015;28;19929;-68
2023/03/31 00:06:00;;;;;;;;;;;;;;;-144.99;100.00;52431.78;5009708;28;19926;-68
2023/03/31 00:08:28;;;;;;;;;;;;;;;-144.99;100.00;52441.97;5008530;28;20045;-72
2023/03/31 00:10:58;;;;;;;;;;;;;;;-144.99;100.00;52409.38;5007222;28;19995;-72
2023/03/31 00:13:26;;;;;;;;;;;;;;;-144.99;100.00;52415.47;5008166;28;19983;-70
2023/03/31 00:15:56;;;;;;;;;;;;;;;-144.99;100.00;52407.31;5009805;28;20015;-71
2023/03/31 00:18:24;;;;;;;;;;;;;;;-144.99;100.00;52417.53;5010075;28;19973;-72
2023/03/31 00:20:51;;;;;;;;;;;;;;;-144.99;100.00;52452.16;5007145;28;19958;-70
2023/03/31 00:23:26;;;;;;;;;;;;;;;-144.99;100.00;52399.19;5009506;28;19993;-70
2023/03/31 00:25:52;;;;;;;;;;;;;;;-144.99;100.00;52435.88;5009596;28;20006;-71
2023/03/31 00:28:19;;;;;;;;;;;;;;;-144.99;100.00;52419.56;5001476;28;19960;-71
2023/03/31 00:30:47;;;;;;;;;;;;;;;-144.99;100.00;52427.72;5011934;28;19925;-68
2023/03/31 00:33:14;;;;;;;;;;;;;;;-144.99;100.00;52431.78;5009047;28;19929;-69
2023/03/31 00:35:40;;;;;;;;;;;;;;;-144.99;100.00;52427.72;5009246;28;19975;-70
2023/03/31 00:38:12;;;;;;;;;;;;;;;-144.99;100.00;52439.94;5006541;28;20218;-69
2023/03/31 00:40:44;;;;;;;;;;;;;;;-144.99;100.00;52419.56;5009265;28;19988;-69
2023/03/31 00:43:22;;;;;;;;;;;;;;;-144.99;100.00;52452.16;5009084;28;19971;-70
2023/03/31 00:45:51;;;;;;;;;;;;;;;-144.99;100.00;52448.09;5007974;28;19930;-69
2023/03/31 00:48:19;;;;;;;;;;;;;;;-144.99;100.00;52427.72;5004277;28;19936;-68
2023/03/31 00:50:49;;;;;;;;;;;;;;;-144.99;100.00;52399.19;5004388;28;19969;-70
2023/03/31 00:53:17;;;;;;;;;;;;;;;-144.99;100.00;52407.31;5008878;28;20445;-69
2023/03/31 00:55:45;;;;;;;;;;;;;;;-144.99;100.00;52399.19;5013261;28;19925;-71
2023/03/31 00:58:14;;;;;;;;;;;;;;;-144.99;100.00;52415.47;5007659;28;20398;-62
2023/03/31 01:00:41;;;;;;;;;;;;;;;-144.99;100.00;52444.03;5011941;28;19949;-63
2023/03/31 01:03:09;;;;;;;;;;;;;;;-144.99;100.00;52452.16;5011242;28;20029;-62
2023/03/31 01:05:39;;;;;;;;;;;;;;;-144.99;100.00;52423.63;5011142;28;19952;-62
2023/03/31 01:08:06;;;;;;;;;;;;;;;-144.99;100.00;52415.47;5010229;28;20311;-63
2023/03/31 01:10:40;;;;;;;;;;;;;;;-144.99;100.00;52435.88;5011393;28;20316;-63
2023/03/31 01:13:08;;;;;;;;;;;;;;;-144.99;100.00;52419.56;5011210;28;19929;-62
2023/03/31 01:15:35;;;;;;;;;;;;;;;-144.99;100.00;52395.09;5011174;28;19984;-65
2023/03/31 01:18:02;;;;;;;;;;;;;;;-144.99;100.00;52407.31;5008288;28;20009;-65
2023/03/31 01:20:34;;;;;;;;;;;;;;;-144.99;100.00;52423.63;5003646;28;20263;-65
2023/03/31 01:23:24;;;;;;;;;;;;;;;-144.99;100.00;52399.19;5009539;28;19937;-66
2023/03/31 01:26:08;;;;;;;;;;;;;;;-144.99;100.00;52407.31;5009660;28;20329;-65
2023/03/31 01:28:38;;;;;;;;;;;;;;;-144.99;100.00;52460.31;5001550;28;20016;-65
2023/03/31 01:31:23;;;;;;;;;;;;;;;-144.99;100.00;52458.28;5008787;28;19964;-66
2023/03/31 01:34:08;;;;;;;;;;;;;;;-144.99;100.00;52399.19;5004669;28;19930;-66
2023/03/31 01:36:51;;;;;;;;;;;;;;;-144.99;100.00;52403.25;5006095;28;20015;-68
2023/03/31 01:39:35;;;;;;;;;;;;;;;-144.99;100.00;52419.56;5006802;28;19929;-67
2023/03/31 01:42:08;;;;;;;;;;;;;;;-144.99;100.00;52439.94;5008183;28;20464;-65
2023/03/31 01:44:40;;;;;;;;;;;;;;;-144.99;100.00;52395.09;5008058;28;20007;-68
2023/03/31 01:47:10;;;;;;;;;;;;;;;-144.99;100.00;52452.16;5005169;28;19930;-67
2023/03/31 01:49:42;;;;;;;;;;;;;;;-144.99;100.00;52456.25;5012202;28;20056;-67
2023/03/31 01:52:16;;;;;;;;;;;;;;;-144.99;100.00;52448.09;5007990;28;20045;-67
2023/03/31 01:54:45;;;;;;;;;;;;;;;-144.99;100.00;52456.25;5006743;28;19961;-67
2023/03/31 01:57:16;;;;;;;;;;;;;;;-144.99;100.00;52427.72;5005006;28;19933;-67
2023/03/31 01:59:45;;;;;;;;;;;;;;;-144.99;100.00;52419.56;5007904;28;19987;-68
2023/03/31 02:02:13;;;;;;;;;;;;;;;-144.99;100.00;52444.03;5006440;28;20007;-69
2023/03/31 02:04:41;;;;;;;;;;;;;;;-144.99;100.00;52462.34;5007582;28;19935;-69
2023/03/31 02:07:12;;;;;;;;;;;;;;;-144.99;100.00;52446.06;5006316;28;20012;-71
2023/03/31 02:09:41;;;;;;;;;;;;;;;-144.99;100.00;52431.78;5007457;28;20397;-70
2023/03/31 02:12:09;;;;;;;;;;;;;;;-144.99;100.00;52407.31;5007432;28;19961;-70
2023/03/31 02:14:39;;;;;;;;;;;;;;;-144.99;100.00;52403.25;5007843;28;20345;-71
2023/03/31 02:17:07;;;;;;;;;;;;;;;-144.99;100.00;52437.91;5005964;28;20061;-71
2023/03/31 02:19:36;;;;;;;;;;;;;;;-144.99;100.00;52433.81;5007514;28;19932;-71
2023/03/31 02:22:03;;;;;;;;;;;;;;;-144.99;100.00;52403.25;5007642;28;20744;-71
2023/03/31 02:24:31;;;;;;;;;;;;;;;-144.99;100.00;52448.09;5007722;28;19956;-71
2023/03/31 02:27:03;;;;;;;;;;;;;;;-144.99;100.00;52444.03;5021753;23;19937;-66
2023/03/31 02:29:30;;;;;;;;;;;;;;;-144.99;100.00;52427.72;5020884;28;19930;-68
2023/03/31 02:32:01;;;;;;;;;;;;;;;-144.99;100.00;52421.59;5025295;28;19925;-66
2023/03/31 02:34:27;;;;;;;;;;;;;;;-144.99;100.00;52407.31;5023930;28;20016;-67
2023/03/31 02:36:54;;;;;;;;;;;;;;;-144.99;100.00;52415.47;5018020;28;19925;-67
2023/03/31 02:39:24;;;;;;;;;;;;;;;-144.99;100.00;52452.16;5009008;28;20032;-67
2023/03/31 02:41:50;;;;;;;;;;;;;;;-144.99;100.00;52425.66;5019233;28;19929;-68
2023/03/31 02:44:17;;;;;;;;;;;;;;;-144.99;100.00;52407.31;5011405;28;19925;-68
2023/03/31 02:46:44;;;;;;;;;;;;;;;-144.99;100.00;52460.31;5011590;28;20004;-68
2023/03/31 02:49:12;;;;;;;;;;;;;;;-144.99;100.00;52448.09;5012775;28;20007;-69
2023/03/31 02:51:56;;;;;;;;;;;;;;;-144.99;100.00;52460.31;5010900;28;19996;-68
2023/03/31 02:54:37;;;;;;;;;;;;;;;-144.99;100.00;52419.56;5015296;28;19935;-67
2023/03/31 02:57:12;;;;;;;;;;;;;;;-144.99;100.00;52431.78;4980242;28;19988;-68
2023/03/31 02:59:43;;;;;;;;;;;;;;;-144.99;100.00;52439.94;5004766;28;19965;-67
2023/03/31 03:02:14;;;;;;;;;;;;;;;-144.99;100.00;52441.97;5016686;28;19930;-67
2023/03/31 03:04:58;;;;;;;;;;;;;;;-144.99;100.00;52423.63;5013350;28;19952;-63
2023/03/31 03:07:28;;;;;;;;;;;;;;;-144.99;100.00;52439.94;5007362;28;19929;-64
2023/03/31 03:10:00;;;;;;;;;;;;;;;-144.99;100.00;52407.31;5001836;28;20019;-64
2023/03/31 03:12:33;;;;;;;;;;;;;;;-144.99;100.00;52448.09;5001492;28;20446;-64
2023/03/31 03:15:02;;;;;;;;;;;;;;;-144.99;100.00;52484.78;5012234;28;20326;-64
2023/03/31 03:17:32;;;;;;;;;;;;;;;-144.99;100.00;52452.16;5015991;28;19995;-64
2023/03/31 03:20:00;;;;;;;;;;;;;;;-144.99;100.00;52403.25;5014222;28;20379;-64
2023/03/31 03:22:28;;;;;;;;;;;;;;;-144.99;100.00;52448.09;5012336;28;19929;-64
2023/03/31 03:24:55;;;;;;;;;;;;;;;-144.99;100.00;52460.31;5018663;28;20396;-65
2023/03/31 03:27:22;;;;;;;;;;;;;;;-144.99;100.00;52497.00;5013625;28;19933;-64
2023/03/31 03:29:49;;;;;;;;;;;;;;;-144.99;100.00;52458.28;5005465;28;20386;-63
2023/03/31 03:32:15;;;;;;;;;;;;;;;-144.99;100.00;52407.31;5016544;28;19964;-64
2023/03/31 03:34:42;;;;;;;;;;;;;;;-144.99;100.00;52452.16;5014209;28;20030;-66
2023/03/31 03:37:08;;;;;;;;;;;;;;;-144.99;100.00;52474.59;5018022;28;19964;-65
2023/03/31 03:39:36;;;;;;;;;;;;;;;-144.99;100.00;52429.75;5015339;28;19937;-65
2023/03/31 03:42:03;;;;;;;;;;;;;;;-144.99;100.00;52448.09;5015978;28;19932;-64
2023/03/31 03:44:29;;;;;;;;;;;;;;;-144.99;100.00;52439.94;5014688;28;19932;-64
2023/03/31 03:46:56;;;;;;;;;;;;;;;-144.99;100.00;52403.25;5012001;28;19996;-65
2023/03/31 03:49:23;;;;;;;;;;;;;;;-144.99;100.00;52431.78;5019216;28;19995;-65
2023/03/31 03:51:49;;;;;;;;;;;;;;;-144.99;100.00;52425.66;5017654;28;19971;-64
2023/03/31 03:54:16;;;;;;;;;;;;;;;-144.99;100.00;52460.31;5020796;28;19972;-64
2023/03/31 03:56:44;;;;;;;;;;;;;;;-144.99;100.00;52415.47;5009168;28;20390;-65
2023/03/31 03:59:11;;;;;;;;;;;;;;;-144.99;100.00;52472.56;5018399;28;20264;-64
2023/03/31 04:01:37;;;;;;;;;;;;;;;-144.99;100.00;52464.41;5011201;28;20354;-63
2023/03/31 04:04:04;;;;;;;;;;;;;;;-144.99;100.00;52423.63;5020109;28;20311;-64
2023/03/31 04:06:31;;;;;;;;;;;;;;;-144.99;100.00;52431.78;5007897;28;20028;-64
2023/03/31 04:08:57;;;;;;;;;;;;;;;-144.99;100.00;52372.69;5011448;28;19929;-64
2023/03/31 04:11:24;;;;;;;;;;;;;;;-144.99;100.00;52433.81;5016782;28;20342;-64
2023/03/31 04:13:52;;;;;;;;;;;;;;;-144.99;100.00;52456.25;5018083;28;20399;-68
2023/03/31 04:16:19;;;;;;;;;;;;;;;-144.99;100.00;52407.31;5004740;28;19948;-64
2023/03/31 04:18:47;;;;;;;;;;;;;;;-144.99;100.00;52456.25;5017774;28;20326;-63
2023/03/31 04:21:21;;;;;;;;;;;;;;;-144.99;100.00;52419.56;5009303;28;19969;-64
2023/03/31 04:23:48;;;;;;;;;;;;;;;-144.99;100.00;52419.56;5017398;28;19932;-64
2023/03/31 04:26:16;;;;;;;;;;;;;;;-144.99;100.00;52444.03;5008771;28;19925;-63
2023/03/31 04:28:45;;;;;;;;;;;;;;;-144.99;100.00;52423.63;5018175;28;19925;-60
2023/03/31 04:31:15;;;;;;;;;;;;;;;-144.99;100.00;52476.63;5014023;28;20012;-65
2023/03/31 04:33:44;;;;;;;;;;;;;;;-144.99;100.00;52423.63;5011876;28;19929;-65
2023/03/31 04:36:16;;;;;;;;;;;;;;;-144.99;100.00;52452.16;5025281;28;20426;-65
2023/03/31 04:38:45;;;;;;;;;;;;;;;-144.99;100.00;52444.03;5017476;28;19957;-65
2023/03/31 04:41:12;;;;;;;;;;;;;;;-144.99;100.00;52458.28;5017474;28;19980;-65
2023/03/31 04:43:39;;;;;;;;;;;;;;;-144.99;100.00;52448.09;5013720;28;19933;-66
2023/03/31 04:46:05;;;;;;;;;;;;;;;-144.99;100.00;52452.16;5014203;28;19964;-66
2023/03/31 04:48:33;;;;;;;;;;;;;;;-144.99;100.00;52431.78;5012722;28;19925;-65
2023/03/31 04:51:00;;;;;;;;;;;;;;;-144.99;100.00;52421.59;5015495;28;19933;-65
2023/03/31 04:53:26;;;;;;;;;;;;;;;-144.99;100.00;52484.78;5013552;28;19965;-66
2023/03/31 04:55:53;;;;;;;;;;;;;;;-144.99;100.00;52439.94;5015311;28;19987;-64
2023/03/31 04:58:19;;;;;;;;;;;;;;;-144.99;100.00;52431.78;5014991;28;19960;-65
2023/03/31 05:00:46;;;;;;;;;;;;;;;-144.99;100.00;52437.91;5013205;28;19976;-63
2023/03/31 05:03:12;;;;;;;;;;;;;;;-144.99;100.00;52448.09;5006441;28;19937;-66
2023/03/31 05:05:40;;;;;;;;;;;;;;;-144.99;100.00;52450.13;5013883;28;19992;-65
2023/03/31 05:08:07;;;;;;;;;;;;;;;-144.99;100.00;52456.25;5011364;28;19956;-67
2023/03/31 05:10:33;;;;;;;;;;;;;;;-144.99;100.00;52448.09;5013241;28;19953;-65
2023/03/31 05:13:00;;;;;;;;;;;;;;;-144.99;100.00;52411.41;5012872;28;19937;-66
2023/03/31 05:15:26;;;;;;;;;;;;;;;-144.99;100.00;52464.41;5014254;28;19973;-65
2023/03/31 05:17:53;;;;;;;;;;;;;;;-144.99;100.00;52415.47;5007904;28;19926;-66
2023/03/31 05:20:20;;;;;;;;;;;;;;;-144.99;100.00;52417.53;4317971;28;10000712;-65
2023/03/31 05:22:48;;;;;;;;;;;;;;;-144.99;100.00;52423.63;5006240;28;20010;-66
2023/03/31 05:25:17;;;;;;;;;;;;;;;-144.99;100.00;52427.72;5012326;28;19965;-69
2023/03/31 05:27:44;;;;;;;;;;;;;;;-144.99;100.00;52431.78;5008572;28;20024;-66
2023/03/31 05:30:11;;;;;;;;;;;;;;;-144.99;100.00;52431.78;5014259;28;20231;-67
2023/03/31 05:32:38;;;;;;;;;;;;;;;-144.99;100.00;52470.50;5012447;28;19929;-66
2023/03/31 05:35:05;;;;;;;;;;;;;;;-144.99;100.00;52439.94;5010531;28;19976;-66
2023/03/31 05:37:31;;;;;;;;;;;;;;;-144.99;100.00;52407.31;5008110;28;20386;-66
2023/03/31 05:39:59;;;;;;;;;;;;;;;-144.99;100.00;52415.47;5014561;28;20020;-66
2023/03/31 05:42:26;;;;;;;;;;;;;;;-144.99;100.00;52452.16;5012133;28;20036;-65
2023/03/31 05:44:52;;;;;;;;;;;;;;;-144.99;100.00;52431.78;5009680;28;19929;-66
2023/03/31 05:47:19;;;;;;;;;;;;;;;-144.99;100.00;52433.81;5005635;28;19930;-65
2023/03/31 05:49:45;;;;;;;;;;;;;;;-144.99;100.00;52427.72;5007073;28;20101;-65
2023/03/31 05:52:12;;;;;;;;;;;;;;;-144.99;100.00;52419.56;5011278;28;19937;-67
2023/03/31 05:54:39;;;;;;;;;;;;;;;-144.99;100.00;52431.78;5017962;28;19976;-66
2023/03/31 05:57:08;;;;;;;;;;;;;;;-144.99;100.00;52460.31;5007476;28;20191;-66
2023/03/31 05:59:35;;;;;;;;;;;;;;;-144.99;100.00;52464.41;5010118;28;20008;-65
2023/03/31 06:02:01;;;;;;;;;;;;;;;-144.99;100.00;52439.94;5012801;28;19949;-66
2023/03/31 06:04:28;;;;;;;;;;;;;;;-144.99;100.00;52448.09;5010515;28;19957;-66
2023/03/31 06:06:54;;;;;;;;;;;;;;;-144.99;100.00;52441.97;5004110;28;19938;-65
2023/03/31 06:09:21;;;;;;;;;;;;;;;-144.99;100.00;52456.25;5008886;28;19929;-65
2023/03/31 06:11:48;;;;;;;;;;;;;;;-144.99;100.00;52460.31;5013225;28;19980;-65
2023/03/31 06:14:16;;;;;;;;;;;;;;;-144.99;100.00;52452.16;5012911;28;19947;-65
2023/03/31 06:16:42;;;;;;;;;;;;;;;-144.99;100.00;52448.09;5007343;28;19973;-66
2023/03/31 06:19:09;;;;;;;;;;;;;;;-144.99;100.00;52450.13;5009696;28;19938;-66
2023/03/31 06:21:35;;;;;;;;;;;;;;;-144.99;100.00;52431.78;5008893;28;20166;-66
2023/03/31 06:24:02;;;;;;;;;;;;;;;-144.99;100.00;52456.25;5008843;28;20342;-67
2023/03/31 06:26:28;;;;;;;;;;;;;;;-144.99;100.00;52423.63;5009874;28;20047;-66
2023/03/31 06:28:55;;;;;;;;;;;;;;;-144.99;100.00;52444.03;5010128;28;20181;-66
2023/03/31 06:31:24;;;;;;;;;;;;;;;-144.99;100.00;52433.81;5009546;28;19933;-66
2023/03/31 06:33:51;;;;;;;;;;;;;;;-144.99;100.00;52460.31;5004971;28;20200;-66
2023/03/31 06:36:19;;;;;;;;;;;;;;;-144.99;100.00;52452.16;5011616;28;19930;-66
2023/03/31 06:38:45;;;;;;;;;;;;;;;-144.99;100.00;52439.94;5007112;28;19929;-66
2023/03/31 06:41:13;;;;;;;;;;;;;;;-144.99;100.00;52431.78;5007736;28;19933;-66
2023/03/31 06:43:40;;;;;;;;;;;;;;;-144.99;100.00;52435.88;4656954;28;9999712;-67
2023/03/31 06:46:07;;;;;;;;;;;;;;;-144.99;100.00;52431.78;5006954;28;19933;-64
2023/03/31 06:48:35;;;;;;;;;;;;;;;-144.99;100.00;52431.78;5008432;28;19933;-66
2023/03/31 06:51:03;;;;;;;;;;;;;;;-144.99;100.00;52417.53;5012918;28;20386;-66
2023/03/31 06:53:30;;;;;;;;;;;;;;;-144.99;100.00;52456.25;5017254;28;19953;-66
2023/03/31 06:55:56;;;;;;;;;;;;;;;-144.99;100.00;52431.78;5014040;28;20414;-66
2023/03/31 06:58:23;;;;;;;;;;;;;;;-144.99;100.00;52399.19;5010147;28;19969;-66
2023/03/31 07:00:50;;;;;;;;;;;;;;;-144.99;100.00;52427.72;5014909;28;19929;-66
2023/03/31 07:03:17;;;;;;;;;;;;;;;-144.99;100.00;52425.66;5004234;28;19929;-65
2023/03/31 07:05:49;;;;;;;;;;;;;;;-144.99;100.00;52460.31;5016747;28;19936;-65
2023/03/31 07:08:17;;;;;;;;;;;;;;;-144.99;100.00;52460.31;5005617;28;19929;-65
2023/03/31 07:10:45;;;;;;;;;;;;;;;-144.99;100.00;52374.72;5009999;28;20271;-66
2023/03/31 07:13:12;;;;;;;;;;;;;;;-144.99;100.00;52444.03;5009988;28;20295;-66
2023/03/31 07:15:39;;;;;;;;;;;;;;;-144.99;100.00;52448.09;5011428;28;19925;-66
2023/03/31 07:18:05;;;;;;;;;;;;;;;-144.99;100.00;52446.06;5002884;28;20399;-64
2023/03/31 07:20:33;;;;;;;;;;;;;;;-144.99;100.00;52431.78;5009144;28;19975;-65
2023/03/31 07:23:03;;;;;;;;;;;;;;;-144.99;100.00;52415.47;5009316;28;20020;-65
2023/03/31 07:25:30;;;;;;;;;;;;;;;-144.99;100.00;52415.47;5011648;28;19929;-65
2023/03/31 07:27:56;;;;;;;;;;;;;;;-144.99;100.00;52417.53;5008395;28;20033;-66
2023/03/31 07:30:23;;;;;;;;;;;;;;;-144.99;100.00;52448.09;5010933;28;19933;-65
2023/03/31 07:32:50;;;;;;;;;;;;;;;-144.99;100.00;52427.72;5007450;28;20307;-66
2023/03/31 07:35:17;;;;;;;;;;;;;;;-144.99;100.00;52423.63;5011764;28;19969;-66
2023/03/31 07:37:45;;;;;;;;;;;;;;;-144.99;100.00;52419.56;5007592;28;20307;-66
2023/03/31 07:40:14;;;;;;;;;;;;;;;-144.99;100.00;52429.75;5013095;28;20217;-66
2023/03/31 07:42:41;;;;;;;;;;;;;;;-144.99;100.00;52413.44;5012176;28;20454;-65
2023/03/31 07:45:09;;;;;;;;;;;;;;;-144.99;100.00;52411.41;5010046;28;19975;-65
2023/03/31 07:47:35;;;;;;;;;;;;;;;-144.99;100.00;52427.72;5005266;28;20302;-65
2023/03/31 07:50:02;;;;;;;;;;;;;;;-144.99;100.00;52399.19;5017436;28;19960;-65
2023/03/31 07:52:28;;;;;;;;;;;;;;;-144.99;100.00;52505.16;5005964;28;19929;-65
2023/03/31 07:54:55;;;;;;;;;;;;;;;-144.99;100.00;52437.91;5013709;28;19930;-65
2023/03/31 07:57:23;;;;;;;;;;;;;;;-144.99;99.78;52409.38;5013608;28;20028;-65
2023/03/31 07:59:49;;;;;;;;;;;;;;;-144.99;100.00;52431.78;5013078;28;19976;-65
2023/03/31 08:02:16;;;;;;;;;;;;;;;-144.99;100.00;52391.03;5015561;28;19933;-65
2023/03/31 08:04:43;;;;;;;;;;;;;;;-144.99;100.00;52439.94;5015175;28;20023;-66
2023/03/31 08:07:10;;;;;;;;;;;;;;;-144.99;100.00;52433.81;5009450;28;19929;-66
2023/03/31 08:09:37;;;;;;;;;;;;;;;-144.99;100.00;52468.47;5013118;28;19969;-66
2023/03/31 08:12:03;;;;;;;;;;;;;;;-144.99;100.00;52439.94;5016893;28;20443;-67
2023/03/31 08:14:32;;;;;;;;;;;;;;;-144.99;100.00;52458.28;5015114;28;19992;-67
2023/03/31 08:16:59;;;;;;;;;;;;;;;-144.99;100.00;52431.78;5009889;28;20409;-68
2023/03/31 08:19:25;;;;;;;;;;;;;;;-144.99;100.00;52421.59;5013258;28;19929;-67
2023/03/31 08:21:52;;;;;;;;;;;;;;;-144.99;100.00;52448.09;5015965;28;19983;-68
2023/03/31 08:24:19;;;;;;;;;;;;;;;-144.99;100.00;52456.25;5010948;28;19929;-67
2023/03/31 08:26:45;;;;;;;;;;;;;;;-144.99;100.00;52439.94;5013265;28;19965;-68
2023/03/31 08:29:12;;;;;;;;;;;;;;;-144.99;100.00;52476.63;5008585;28;19940;-67
2023/03/31 08:31:40;;;;;;;;;;;;;;;-144.99;100.00;52403.25;5009441;28;19964;-68
2023/03/31 08:34:07;;;;;;;;;;;;;;;-144.99;100.00;52460.31;5009549;28;20512;-67
2023/03/31 08:36:33;;;;;;;;;;;;;;;-144.99;100.00;52431.78;5012975;28;19929;-66
2023/03/31 08:39:00;;;;;;;;;;;;;;;-144.99;100.00;52460.31;5009931;28;19985;-67
2023/03/31 08:41:44;;;;;;;;;;;;;;;-144.99;100.00;52458.28;5017274;28;20354;-67
2023/03/31 08:44:14;;;;;;;;;;;;;;;-144.99;100.00;52429.75;5007938;28;19936;-68
2023/03/31 08:46:42;;;;;;;;;;;;;;;-144.99;100.00;52427.72;5014581;28;20040;-67
2023/03/31 08:49:14;;;;;;;;;;;;;;;-144.99;100.00;52431.78;5013951;28;19930;-67
2023/03/31 08:51:41;;;;;;;;;;;;;;;-144.99;100.00;52439.94;5009731;28;20436;-67
2023/03/31 08:54:12;;;;;;;;;;;;;;;-144.99;100.00;52448.09;5014528;28;20075;-67
2023/03/31 08:56:41;;;;;;;;;;;;;;;-144.99;100.00;52407.31;5006415;28;19972;-67
2023/03/31 08:59:17;;;;;;;;;;;;;;;-144.99;100.00;52407.31;5016839;28;19932;-67
2023/03/31 09:01:49;;;;;;;;;;;;;;;-144.99;100.00;52423.63;5015648;28;20407;-68
2023/03/31 09:04:23;;;;;;;;;;;;;;;-144.99;100.00;52456.25;5016228;28;19926;-67
2023/03/31 09:06:54;;;;;;;;;;;;;;;-144.99;100.00;52431.78;5012925;28;20009;-68
2023/03/31 09:09:26;;;;;;;;;;;;;;;-144.99;100.00;52431.78;5001389;28;19926;-68
2023/03/31 09:11:54;;;;;;;;;;;;;;;-144.99;100.00;52435.88;5007838;28;20036;-66
2023/03/31 09:16:59;;;;;;;;;;;;;;;-144.99;100.00;52456.25;5007448;28;19913;-78
2023/03/31 09:19:30;;;;;;;;;;;;;;;-144.99;100.00;52415.47;5024527;28;19929;-77
2023/03/31 09:22:00;;;;;;;;;;;;;;;-144.99;100.00;52407.31;5014903;28;20724;-80
2023/03/31 09:24:29;;;;;;;;;;;;;;;-144.99;100.00;52448.09;5017692;28;19987;-78
2023/03/31 09:26:57;;;;;;;;;;;;;;;-144.99;100.00;52439.94;5009676;28;19930;-81
2023/03/31 09:29:28;;;;;;;;;;;;;;;-144.99;100.00;52460.31;5016619;28;19930;-79
2023/03/31 09:31:56;;;;;;;;;;;;;;;-144.99;100.00;52448.09;5015695;28;20399;-80
2023/03/31 09:34:24;;;;;;;;;;;;;;;-144.99;100.00;52386.94;5001271;28;19933;-79
2023/03/31 09:36:51;;;;;;;;;;;;;;;-144.99;100.00;52401.22;5013093;28;20336;-79
2023/03/31 09:39:17;;;;;;;;;;;;;;;-144.99;100.00;52456.25;5007540;28;20341;-77
2023/03/31 09:41:48;;;;;;;;;;;;;;;-144.99;100.00;52444.03;5011029;28;19973;-78
2023/03/31 09:44:22;;;;;;;;;;;;;;;-144.99;100.00;52386.94;5006071;28;20021;-78
2023/03/31 09:46:50;;;;;;;;;;;;;;;-144.99;100.00;52403.25;5008488;28;20401;-78
2023/03/31 09:49:19;;;;;;;;;;;;;;;-144.99;100.00;52448.09;5002941;28;20176;-79
2023/03/31 09:51:48;;;;;;;;;;;;;;;-144.99;100.00;52419.56;5004207;28;19932;-80
2023/03/31 09:54:20;;;;;;;;;;;;;;;-144.99;100.00;52448.09;5007913;28;19980;-78
2023/03/31 09:56:48;;;;;;;;;;;;;;;-144.99;100.00;52391.03;5009372;28;19925;-77
2023/03/31 09:59:16;;;;;;;;;;;;;;;-144.99;100.00;52419.56;5026681;28;19933;-78
2023/03/31 10:01:44;;;;;;;;;;;;;;;-144.99;100.00;52427.72;5011979;28;20404;-77
2023/03/31 10:04:16;;;;;;;;;;;;;;;-144.99;100.00;52439.94;5007007;28;19940;-79
2023/03/31 10:06:46;;;;;;;;;;;;;;;-144.99;100.00;52403.25;5015210;28;19925;-80
2023/03/31 10:09:13;;;;;;;;;;;;;;;-144.99;100.00;52399.19;5011743;28;19985;-79
2023/03/31 10:11:40;;;;;;;;;;;;;;;-144.99;100.00;52391.03;5008049;28;19961;-79
2023/03/31 10:14:12;;;;;;;;;;;;;;;-144.99;100.00;52419.56;5014549;28;19930;-78
2023/03/31 10:16:43;;;;;;;;;;;;;;;-144.99;100.00;52444.03;5013292;28;19988;-78
2023/03/31 10:19:14;;;;;;;;;;;;;;;-144.99;100.00;52439.94;5002973;28;19929;-78
2023/03/31 10:21:45;;;;;;;;;;;;;;;-144.99;100.00;52427.72;5009974;28;19956;-79
2023/03/31 10:24:18;;;;;;;;;;;;;;;-144.99;100.00;52423.63;5007167;28;19929;-77
2023/03/31 10:26:48;;;;;;;;;;;;;;;-144.99;100.00;52423.63;5002147;28;19957;-79
2023/03/31 10:29:20;;;;;;;;;;;;;;;-144.99;100.00;52427.72;5015436;28;19922;-77
2023/03/31 10:31:47;;;;;;;;;;;;;;;-144.99;100.00;52399.19;5018747;28;19925;-78
2023/03/31 10:34:16;;;;;;;;;;;;;;;-144.99;100.00;52444.03;5010360;28;19976;-78
2023/03/31 10:36:46;;;;;;;;;;;;;;;-144.99;100.00;52419.56;5007319;28;19936;-79
2023/03/31 10:39:15;;;;;;;;;;;;;;;-144.99;100.00;52409.38;5014189;28;19934;-79
2023/03/31 10:41:41;;;;;;;;;;;;;;;-144.99;100.00;52427.72;5010516;28;19926;-77
2023/03/31 10:44:29;;;;;;;;;;;;;;;-144.99;100.00;52431.78;5006731;28;19926;-78
2023/03/31 10:47:03;;;;;;;;;;;;;;;-144.99;100.00;52462.34;4999222;28;19930;-77
2023/03/31 10:49:29;;;;;;;;;;;;;;;-144.99;100.00;52444.03;5005045;28;20828;-76
2023/03/31 10:51:56;;;;;;;;;;;;;;;-144.99;100.00;52407.31;5007379;28;19930;-79
2023/03/31 10:54:24;;;;;;;;;;;;;;;-144.99;100.00;52458.28;5017193;28;19929;-80
2023/03/31 10:56:52;;;;;;;;;;;;;;;-144.99;100.00;52407.31;5015883;28;19992;-78
2023/03/31 10:59:35;;;;;;;;;;;;;;;-144.99;100.00;52427.72;5013776;28;20376;-78
2023/03/31 11:02:14;;;;;;;;;;;;;;;-144.99;100.00;52427.72;5009822;28;19925;-78
2023/03/31 11:04:57;;;;;;;;;;;;;;;-144.99;100.00;52395.09;5015081;28;19964;-77
2023/03/31 11:07:31;;;;;;;;;;;;;;;-144.99;100.00;52444.03;5006483;28;19956;-79
2023/03/31 11:10:07;;;;;;;;;;;;;;;-144.99;100.00;52403.25;5006486;28;19940;-80
2023/03/31 11:12:38;;;;;;;;;;;;;;;-144.99;100.00;52427.72;5004964;28;19960;-80
2023/03/31 11:15:13;;;;;;;;;;;;;;;-144.99;100.00;52401.22;5003405;28;20119;-79
2023/03/31 11:17:47;;;;;;;;;;;;;;;-144.99;100.00;52423.63;5000189;28;19930;-79
2023/03/31 11:20:18;;;;;;;;;;;;;;;-144.99;100.00;52415.47;5024511;28;19914;-78
2023/03/31 11:22:51;;;;;;;;;;;;;;;-144.99;100.00;52407.31;5021293;28;19952;-80
2023/03/31 11:25:25;;;;;;;;;;;;;;;-144.99;100.00;52423.63;5002713;28;19961;-79
2023/03/31 11:28:02;;;;;;;;;;;;;;;-144.99;100.00;52431.78;5008155;28;20234;-78
2023/03/31 11:30:31;;;;;;;;;;;;;;;-144.99;100.00;52437.91;5004033;28;19930;-80
2023/03/31 11:33:05;;;;;;;;;;;;;;;-144.99;100.00;52439.94;5000072;28;19933;-78
2023/03/31 11:35:47;;;;;;;;;;;;;;;-144.99;100.00;52439.94;5019823;28;19932;-81
2023/03/31 11:38:26;;;;;;;;;;;;;;;-144.99;100.00;52425.66;5008075;28;19961;-81
2023/03/31 11:40:59;;;;;;;;;;;;;;;-144.99;100.00;52427.72;5006056;28;19930;-81
2023/03/31 11:43:29;;;;;;;;;;;;;;;-144.99;100.00;52439.94;5011752;28;19934;-84
2023/03/31 11:45:59;;;;;;;;;;;;;;;-144.99;100.00;52388.97;5009646;28;20184;-83
2023/03/31 11:48:35;;;;;;;;;;;;;;;-144.99;100.00;52415.47;5011766;28;19938;-80
2023/03/31 11:51:03;;;;;;;;;;;;;;;-144.99;100.00;52427.72;5010229;28;20308;-77
2023/03/31 11:53:31;;;;;;;;;;;;;;;-144.99;100.00;52431.78;5011860;28;20005;-81
2023/03/31 11:56:01;;;;;;;;;;;;;;;-144.99;100.00;52472.56;5016459;28;20427;-79
2023/03/31 11:58:30;;;;;;;;;;;;;;;-144.99;100.00;52415.47;5016839;28;20486;-80
2023/03/31 12:00:59;;;;;;;;;;;;;;;-144.99;100.00;52448.09;5020853;28;19940;-80
2023/03/31 12:03:32;;;;;;;;;;;;;;;-144.99;100.00;52448.09;5023588;28;19983;-79
2023/03/31 12:06:01;;;;;;;;;;;;;;;-144.99;100.00;52454.22;5008937;28;19930;-79
2023/03/31 12:08:31;;;;;;;;;;;;;;;-144.99;100.00;52439.94;5010930;28;19926;-78
2023/03/31 12:11:01;;;;;;;;;;;;;;;-144.99;100.00;52456.25;5018185;28;19941;-81
2023/03/31 12:13:36;;;;;;;;;;;;;;;-144.99;100.00;52419.56;5006295;28;19936;-85
2023/03/31 12:16:05;;;;;;;;;;;;;;;-144.99;100.00;52448.09;5018441;28;20153;-81
2023/03/31 12:18:34;;;;;;;;;;;;;;;-144.99;100.00;52468.47;5021354;28;19933;-79
2023/03/31 12:21:03;;;;;;;;;;;;;;;-144.99;100.00;52435.88;5018685;28;20356;-82
2023/03/31 12:23:31;;;;;;;;;;;;;;;-144.99;100.00;52427.72;5022549;28;19943;-82
2023/03/31 12:26:03;;;;;;;;;;;;;;;-144.99;100.00;52419.56;5020412;28;19937;-84
2023/03/31 12:28:36;;;;;;;;;;;;;;;-144.99;100.00;52448.09;5030511;28;19925;-82
2023/03/31 12:31:03;;;;;;;;;;;;;;;-144.99;100.00;52460.31;5018819;28;19937;-81